<?xml version="1.0" encoding="UTF-8" standalone="no" ?>
<gpx xmlns="http://www.topografix.com/GPX/1/1" xmlns:xsi="http://www.w3.org/2001/XMLSchema-instance" xsi:schemaLocation="http://www.topografix.com/GPX/1/1 http://www.topografix.com/GPX/1/1/gpx.xsd" version="1.1" creator="VisuGPX - https://www.visugpx.com">
  <metadata>
    <name>Parilly 14km</name>
    <desc><![CDATA[un ptit footing a l allure sympa]]></desc>
  </metadata>
  <trk>
    <name><![CDATA[Sequence 2]]></name>
    <trkseg>
      <trkpt lat="45.72219" lon="4.9007">
        <ele>170</ele>
        <time>2017-02-28T17:47:38Z</time>
      </trkpt>
      <trkpt lat="45.72223" lon="4.90045">
        <ele>158</ele>
        <time>2017-02-28T17:47:45Z</time>
      </trkpt>
      <trkpt lat="45.72223" lon="4.90037">
        <ele>161</ele>
        <time>2017-02-28T17:47:46Z</time>
      </trkpt>
      <trkpt lat="45.72211" lon="4.89994">
        <ele>166</ele>
        <time>2017-02-28T17:47:52Z</time>
      </trkpt>
      <trkpt lat="45.72203" lon="4.89967">
        <ele>166</ele>
        <time>2017-02-28T17:47:58Z</time>
      </trkpt>
      <trkpt lat="45.72193" lon="4.89941">
        <ele>168</ele>
        <time>2017-02-28T17:48:04Z</time>
      </trkpt>
      <trkpt lat="45.72188" lon="4.89914">
        <ele>167</ele>
        <time>2017-02-28T17:48:11Z</time>
      </trkpt>
      <trkpt lat="45.72207" lon="4.89783">
        <ele>163</ele>
        <time>2017-02-28T17:48:33Z</time>
      </trkpt>
      <trkpt lat="45.72208" lon="4.89779">
        <ele>163</ele>
        <time>2017-02-28T17:48:34Z</time>
      </trkpt>
      <trkpt lat="45.72204" lon="4.89732">
        <ele>164</ele>
        <time>2017-02-28T17:48:45Z</time>
      </trkpt>
      <trkpt lat="45.72208" lon="4.89714">
        <ele>164</ele>
        <time>2017-02-28T17:48:51Z</time>
      </trkpt>
      <trkpt lat="45.72183" lon="4.89756">
        <ele>168</ele>
        <time>2017-02-28T17:49:02Z</time>
      </trkpt>
      <trkpt lat="45.7218" lon="4.89774">
        <ele>167</ele>
        <time>2017-02-28T17:49:05Z</time>
      </trkpt>
      <trkpt lat="45.72192" lon="4.89815">
        <ele>155</ele>
        <time>2017-02-28T17:49:14Z</time>
      </trkpt>
      <trkpt lat="45.7218" lon="4.89874">
        <ele>155</ele>
        <time>2017-02-28T17:49:22Z</time>
      </trkpt>
      <trkpt lat="45.72171" lon="4.89907">
        <ele>154</ele>
        <time>2017-02-28T17:49:31Z</time>
      </trkpt>
      <trkpt lat="45.72186" lon="4.89941">
        <ele>160</ele>
        <time>2017-02-28T17:49:39Z</time>
      </trkpt>
      <trkpt lat="45.72188" lon="4.89953">
        <ele>160</ele>
        <time>2017-02-28T17:49:42Z</time>
      </trkpt>
      <trkpt lat="45.7221" lon="4.90129">
        <ele>155</ele>
        <time>2017-02-28T17:50:17Z</time>
      </trkpt>
      <trkpt lat="45.72225" lon="4.90141">
        <ele>158</ele>
        <time>2017-02-28T17:50:21Z</time>
      </trkpt>
      <trkpt lat="45.72228" lon="4.90154">
        <ele>154</ele>
        <time>2017-02-28T17:50:24Z</time>
      </trkpt>
      <trkpt lat="45.7223" lon="4.90172">
        <ele>153</ele>
        <time>2017-02-28T17:50:30Z</time>
      </trkpt>
      <trkpt lat="45.72193" lon="4.90399">
        <ele>161</ele>
        <time>2017-02-28T17:51:19Z</time>
      </trkpt>
      <trkpt lat="45.72198" lon="4.90421">
        <ele>167</ele>
        <time>2017-02-28T17:51:22Z</time>
      </trkpt>
      <trkpt lat="45.72202" lon="4.90438">
        <ele>167</ele>
        <time>2017-02-28T17:51:26Z</time>
      </trkpt>
      <trkpt lat="45.72312" lon="4.9069">
        <ele>158</ele>
        <time>2017-02-28T17:52:31Z</time>
      </trkpt>
      <trkpt lat="45.72347" lon="4.90722">
        <ele>153</ele>
        <time>2017-02-28T17:52:38Z</time>
      </trkpt>
      <trkpt lat="45.72351" lon="4.9075">
        <ele>158</ele>
        <time>2017-02-28T17:52:44Z</time>
      </trkpt>
      <trkpt lat="45.72372" lon="4.90866">
        <ele>157</ele>
        <time>2017-02-28T17:53:07Z</time>
      </trkpt>
      <trkpt lat="45.72366" lon="4.90874">
        <ele>159</ele>
        <time>2017-02-28T17:53:10Z</time>
      </trkpt>
      <trkpt lat="45.72381" lon="4.9089">
        <ele>161</ele>
        <time>2017-02-28T17:53:14Z</time>
      </trkpt>
      <trkpt lat="45.72315" lon="4.90782">
        <ele>163</ele>
        <time>2017-02-28T17:53:55Z</time>
      </trkpt>
      <trkpt lat="45.72296" lon="4.90744">
        <ele>188</ele>
        <time>2017-02-28T17:54:06Z</time>
      </trkpt>
      <trkpt lat="45.72292" lon="4.90715">
        <ele>190</ele>
        <time>2017-02-28T17:54:13Z</time>
      </trkpt>
      <trkpt lat="45.7229" lon="4.90695">
        <ele>186</ele>
        <time>2017-02-28T17:54:18Z</time>
      </trkpt>
      <trkpt lat="45.72297" lon="4.90688">
        <ele>185</ele>
        <time>2017-02-28T17:54:21Z</time>
      </trkpt>
      <trkpt lat="45.72273" lon="4.90641">
        <ele>183</ele>
        <time>2017-02-28T17:54:30Z</time>
      </trkpt>
      <trkpt lat="45.72262" lon="4.90616">
        <ele>182</ele>
        <time>2017-02-28T17:54:35Z</time>
      </trkpt>
      <trkpt lat="45.72248" lon="4.90597">
        <ele>179</ele>
        <time>2017-02-28T17:54:39Z</time>
      </trkpt>
      <trkpt lat="45.72234" lon="4.90574">
        <ele>174</ele>
        <time>2017-02-28T17:54:44Z</time>
      </trkpt>
      <trkpt lat="45.72228" lon="4.90545">
        <ele>176</ele>
        <time>2017-02-28T17:54:50Z</time>
      </trkpt>
      <trkpt lat="45.72226" lon="4.90512">
        <ele>174</ele>
        <time>2017-02-28T17:54:56Z</time>
      </trkpt>
      <trkpt lat="45.72215" lon="4.90479">
        <ele>167</ele>
        <time>2017-02-28T17:55:04Z</time>
      </trkpt>
      <trkpt lat="45.72211" lon="4.90465">
        <ele>167</ele>
        <time>2017-02-28T17:55:08Z</time>
      </trkpt>
      <trkpt lat="45.722" lon="4.90431">
        <ele>167</ele>
        <time>2017-02-28T17:55:14Z</time>
      </trkpt>
      <trkpt lat="45.72186" lon="4.90385">
        <ele>166</ele>
        <time>2017-02-28T17:55:24Z</time>
      </trkpt>
      <trkpt lat="45.72164" lon="4.90355">
        <ele>168</ele>
        <time>2017-02-28T17:55:30Z</time>
      </trkpt>
      <trkpt lat="45.72157" lon="4.90334">
        <ele>166</ele>
        <time>2017-02-28T17:55:36Z</time>
      </trkpt>
      <trkpt lat="45.72154" lon="4.90328">
        <ele>167</ele>
        <time>2017-02-28T17:55:38Z</time>
      </trkpt>
      <trkpt lat="45.72151" lon="4.90278">
        <ele>164</ele>
        <time>2017-02-28T17:55:48Z</time>
      </trkpt>
      <trkpt lat="45.72147" lon="4.90273">
        <ele>165</ele>
        <time>2017-02-28T17:55:50Z</time>
      </trkpt>
      <trkpt lat="45.72123" lon="4.90222">
        <ele>165</ele>
        <time>2017-02-28T17:56:01Z</time>
      </trkpt>
      <trkpt lat="45.72119" lon="4.90212">
        <ele>168</ele>
        <time>2017-02-28T17:56:06Z</time>
      </trkpt>
      <trkpt lat="45.72112" lon="4.90201">
        <ele>168</ele>
        <time>2017-02-28T17:56:08Z</time>
      </trkpt>
      <trkpt lat="45.72071" lon="4.90184">
        <ele>161</ele>
        <time>2017-02-28T17:56:16Z</time>
      </trkpt>
      <trkpt lat="45.72071" lon="4.90148">
        <ele>162</ele>
        <time>2017-02-28T17:56:23Z</time>
      </trkpt>
      <trkpt lat="45.72075" lon="4.90131">
        <ele>164</ele>
        <time>2017-02-28T17:56:26Z</time>
      </trkpt>
      <trkpt lat="45.72072" lon="4.90088">
        <ele>164</ele>
        <time>2017-02-28T17:56:36Z</time>
      </trkpt>
      <trkpt lat="45.72068" lon="4.90082">
        <ele>165</ele>
        <time>2017-02-28T17:56:38Z</time>
      </trkpt>
      <trkpt lat="45.72056" lon="4.90052">
        <ele>163</ele>
        <time>2017-02-28T17:56:44Z</time>
      </trkpt>
      <trkpt lat="45.7205" lon="4.90022">
        <ele>165</ele>
        <time>2017-02-28T17:56:50Z</time>
      </trkpt>
      <trkpt lat="45.72043" lon="4.89996">
        <ele>166</ele>
        <time>2017-02-28T17:56:56Z</time>
      </trkpt>
      <trkpt lat="45.72031" lon="4.89963">
        <ele>165</ele>
        <time>2017-02-28T17:57:04Z</time>
      </trkpt>
      <trkpt lat="45.72032" lon="4.89925">
        <ele>167</ele>
        <time>2017-02-28T17:57:11Z</time>
      </trkpt>
      <trkpt lat="45.7203" lon="4.8989">
        <ele>168</ele>
        <time>2017-02-28T17:57:18Z</time>
      </trkpt>
      <trkpt lat="45.72031" lon="4.89864">
        <ele>167</ele>
        <time>2017-02-28T17:57:22Z</time>
      </trkpt>
      <trkpt lat="45.72004" lon="4.89847">
        <ele>171</ele>
        <time>2017-02-28T17:57:29Z</time>
      </trkpt>
      <trkpt lat="45.71989" lon="4.89839">
        <ele>170</ele>
        <time>2017-02-28T17:57:32Z</time>
      </trkpt>
      <trkpt lat="45.7195" lon="4.89846">
        <ele>178</ele>
        <time>2017-02-28T17:57:42Z</time>
      </trkpt>
      <trkpt lat="45.71948" lon="4.89842">
        <ele>177</ele>
        <time>2017-02-28T17:57:44Z</time>
      </trkpt>
      <trkpt lat="45.71925" lon="4.89843">
        <ele>174</ele>
        <time>2017-02-28T17:57:50Z</time>
      </trkpt>
      <trkpt lat="45.719" lon="4.89854">
        <ele>175</ele>
        <time>2017-02-28T17:57:57Z</time>
      </trkpt>
      <trkpt lat="45.71889" lon="4.89857">
        <ele>177</ele>
        <time>2017-02-28T17:58:02Z</time>
      </trkpt>
      <trkpt lat="45.71869" lon="4.89861">
        <ele>182</ele>
        <time>2017-02-28T17:58:08Z</time>
      </trkpt>
      <trkpt lat="45.7184" lon="4.89881">
        <ele>183</ele>
        <time>2017-02-28T17:58:17Z</time>
      </trkpt>
      <trkpt lat="45.71814" lon="4.89899">
        <ele>183</ele>
        <time>2017-02-28T17:58:23Z</time>
      </trkpt>
      <trkpt lat="45.7179" lon="4.89919">
        <ele>182</ele>
        <time>2017-02-28T17:58:31Z</time>
      </trkpt>
      <trkpt lat="45.71787" lon="4.89916">
        <ele>179</ele>
        <time>2017-02-28T17:58:33Z</time>
      </trkpt>
      <trkpt lat="45.71821" lon="4.89905">
        <ele>170</ele>
        <time>2017-02-28T17:58:41Z</time>
      </trkpt>
      <trkpt lat="45.71837" lon="4.89899">
        <ele>169</ele>
        <time>2017-02-28T17:58:44Z</time>
      </trkpt>
      <trkpt lat="45.71889" lon="4.89894">
        <ele>154</ele>
        <time>2017-02-28T17:58:55Z</time>
      </trkpt>
      <trkpt lat="45.71892" lon="4.89896">
        <ele>154</ele>
        <time>2017-02-28T17:58:56Z</time>
      </trkpt>
      <trkpt lat="45.71915" lon="4.89898">
        <ele>149</ele>
        <time>2017-02-28T17:59:02Z</time>
      </trkpt>
      <trkpt lat="45.71948" lon="4.89939">
        <ele>149</ele>
        <time>2017-02-28T17:59:12Z</time>
      </trkpt>
      <trkpt lat="45.71947" lon="4.89949">
        <ele>152</ele>
        <time>2017-02-28T17:59:14Z</time>
      </trkpt>
      <trkpt lat="45.71952" lon="4.9">
        <ele>155</ele>
        <time>2017-02-28T17:59:24Z</time>
      </trkpt>
      <trkpt lat="45.71957" lon="4.90009">
        <ele>155</ele>
        <time>2017-02-28T17:59:26Z</time>
      </trkpt>
      <trkpt lat="45.71959" lon="4.90039">
        <ele>149</ele>
        <time>2017-02-28T17:59:32Z</time>
      </trkpt>
      <trkpt lat="45.71952" lon="4.90098">
        <ele>149</ele>
        <time>2017-02-28T17:59:43Z</time>
      </trkpt>
      <trkpt lat="45.71953" lon="4.90111">
        <ele>151</ele>
        <time>2017-02-28T17:59:46Z</time>
      </trkpt>
      <trkpt lat="45.71953" lon="4.90129">
        <ele>150</ele>
        <time>2017-02-28T17:59:50Z</time>
      </trkpt>
      <trkpt lat="45.71958" lon="4.90182">
        <ele>153</ele>
        <time>2017-02-28T18:00:01Z</time>
      </trkpt>
      <trkpt lat="45.71958" lon="4.90185">
        <ele>153</ele>
        <time>2017-02-28T18:00:02Z</time>
      </trkpt>
      <trkpt lat="45.71961" lon="4.9021">
        <ele>156</ele>
        <time>2017-02-28T18:00:08Z</time>
      </trkpt>
      <trkpt lat="45.71983" lon="4.90241">
        <ele>155</ele>
        <time>2017-02-28T18:00:14Z</time>
      </trkpt>
      <trkpt lat="45.7198" lon="4.90267">
        <ele>155</ele>
        <time>2017-02-28T18:00:20Z</time>
      </trkpt>
      <trkpt lat="45.71968" lon="4.90297">
        <ele>155</ele>
        <time>2017-02-28T18:00:26Z</time>
      </trkpt>
    </trkseg>
  </trk>
</gpx>